createdAt,value
2024-04-06T00:00:45.785Z,89.52
2024-04-06T00:01:46.161Z,89.72
2024-04-06T00:02:45.729Z,89.72
2024-04-06T00:03:53.062Z,89.52
2024-04-06T00:04:47.216Z,89.52
2024-04-06T00:05:45.687Z,89.42
2024-04-06T00:06:46.052Z,89.52
2024-04-06T00:07:45.624Z,89.52
2024-04-06T00:08:45.639Z,89.62
2024-04-06T00:09:45.684Z,89.62
2024-04-06T00:10:45.595Z,89.52
2024-04-06T00:11:45.995Z,89.62
2024-04-06T00:12:45.591Z,89.62
2024-04-06T00:13:45.567Z,89.72
2024-04-06T00:14:45.612Z,89.62
2024-04-06T00:15:45.585Z,89.62
2024-04-06T00:16:45.522Z,89.62
2024-04-06T00:17:46.507Z,89.72
2024-04-06T00:18:45.476Z,89.62
2024-04-06T00:19:45.524Z,89.62
2024-04-06T00:20:45.505Z,89.62
2024-04-06T00:21:45.478Z,89.72
2024-04-06T00:22:45.871Z,89.62
2024-04-06T00:23:45.454Z,89.62
2024-04-06T00:24:45.453Z,89.92
2024-04-06T00:25:45.462Z,89.72
2024-04-06T00:26:45.437Z,89.62
2024-04-06T00:27:45.856Z,89.62
2024-04-06T00:28:45.375Z,89.62
2024-04-06T00:29:45.413Z,89.62
2024-04-06T00:30:45.335Z,89.62
2024-04-06T00:31:45.370Z,89.62
2024-04-06T00:32:45.320Z,89.62
2024-04-06T00:33:45.744Z,89.62
2024-04-06T00:34:45.259Z,89.72
2024-04-06T00:35:45.294Z,89.92
2024-04-06T00:36:45.300Z,89.72
2024-04-06T00:37:45.976Z,89.62
2024-04-06T00:38:45.253Z,89.62
2024-04-06T00:39:45.653Z,89.62
2024-04-06T00:40:45.233Z,89.52
2024-04-06T00:41:45.252Z,89.62
2024-04-06T00:42:45.238Z,89.83
2024-04-06T00:43:45.145Z,89.92
2024-04-06T00:44:45.594Z,89.83
2024-04-06T00:45:45.429Z,90.23
2024-04-06T00:46:45.135Z,90.33
2024-04-06T00:47:45.149Z,89.92
2024-04-06T00:48:45.149Z,90.07
2024-04-06T00:49:45.535Z,90.07
2024-04-06T00:50:45.129Z,90.07
2024-04-06T00:51:45.112Z,90.17
2024-04-06T00:52:45.077Z,90.07
2024-04-06T00:53:45.134Z,90.27
2024-04-06T00:54:45.475Z,90.17
2024-04-06T00:55:45.018Z,90.07
2024-04-06T00:56:45.059Z,90.17
2024-04-06T00:57:45.022Z,90.37
2024-04-06T00:58:44.999Z,90.58
2024-04-06T00:59:44.984Z,90.48
2024-04-06T01:00:45.432Z,90.37
2024-04-06T01:01:57.110Z,90.37
2024-04-06T01:02:46.436Z,90.58
2024-04-06T01:03:44.876Z,90.48
2024-04-06T01:04:45.006Z,90.48
2024-04-06T01:05:44.912Z,90.48
2024-04-06T01:06:45.323Z,90.68
2024-04-06T01:07:44.880Z,90.58
2024-04-06T01:08:44.834Z,90.58
2024-04-06T01:09:44.821Z,90.68
2024-04-06T01:10:44.910Z,90.68
2024-04-06T01:11:44.804Z,90.78
2024-04-06T01:12:45.270Z,90.78
2024-04-06T01:13:44.788Z,90.68
2024-04-06T01:14:44.775Z,90.68
2024-04-06T01:15:44.792Z,90.78
2024-04-06T01:16:44.722Z,90.88
2024-04-06T01:17:44.743Z,90.99
2024-04-06T01:18:44.694Z,90.99
2024-04-06T01:19:44.736Z,90.99
2024-04-06T01:20:44.676Z,91.13
2024-04-06T01:21:44.745Z,91.13
2024-04-06T01:22:44.684Z,91.13
2024-04-06T01:23:45.150Z,91.23
2024-04-06T01:24:47.317Z,91.43
2024-04-06T01:25:44.628Z,91.43
2024-04-06T01:26:44.816Z,91.23
2024-04-06T01:27:44.703Z,91.33
2024-04-06T01:28:44.594Z,91.33
2024-04-06T01:29:45.024Z,91.33
2024-04-06T01:30:44.554Z,91.23
2024-04-06T01:31:44.606Z,91.53
2024-04-06T01:32:44.529Z,91.43
2024-04-06T01:33:44.641Z,91.53
2024-04-06T01:34:44.474Z,91.53
2024-04-06T01:35:44.899Z,91.64
2024-04-06T01:36:44.481Z,91.64
2024-04-06T01:37:48.184Z,91.84
2024-04-06T01:38:44.438Z,91.84
2024-04-06T01:39:44.464Z,91.94
2024-04-06T01:40:44.445Z,91.74
2024-04-06T01:41:44.870Z,91.84
2024-04-06T01:42:44.415Z,92.04
2024-04-06T01:43:44.389Z,91.84
2024-04-06T01:44:44.451Z,91.94
2024-04-06T01:45:44.366Z,91.94
2024-04-06T01:46:44.377Z,92.04
2024-04-06T01:47:44.776Z,92.04
2024-04-06T01:48:44.341Z,92.04
2024-04-06T01:49:44.304Z,91.88
2024-04-06T01:50:44.308Z,91.99
2024-04-06T01:51:44.308Z,92.14
2024-04-06T01:52:44.719Z,91.94
2024-04-06T01:53:44.274Z,91.84
2024-04-06T01:54:44.265Z,91.78
2024-04-06T01:55:44.284Z,91.78
2024-04-06T01:56:44.202Z,91.78
2024-04-06T01:57:44.243Z,91.68
2024-04-06T01:58:44.612Z,91.78
2024-04-06T01:59:44.153Z,91.68
2024-04-06T02:00:44.194Z,91.88
2024-04-06T02:01:44.147Z,92.09
2024-04-06T02:02:45.934Z,91.88
2024-04-06T02:03:44.149Z,91.58
2024-04-06T02:04:44.531Z,91.58
2024-04-06T02:05:44.127Z,91.68
2024-04-06T02:06:44.104Z,91.78
2024-04-06T02:07:44.230Z,91.78
2024-04-06T02:08:44.130Z,91.88
2024-04-06T02:09:44.448Z,91.78
2024-04-06T02:10:44.079Z,91.78
2024-04-06T02:11:44.056Z,91.88
2024-04-06T02:12:44.017Z,91.88
2024-04-06T02:13:44.046Z,91.88
2024-04-06T02:14:43.999Z,91.99
2024-04-06T02:15:44.382Z,91.99
2024-04-06T02:16:43.995Z,91.88
2024-04-06T02:17:43.931Z,91.88
2024-04-06T02:18:43.919Z,91.88
2024-04-06T02:19:43.945Z,92.09
2024-04-06T02:20:44.368Z,92.09
2024-04-06T02:21:43.889Z,92.09
2024-04-06T02:22:43.893Z,92.09
2024-04-06T02:23:43.893Z,92.09
2024-04-06T02:24:43.960Z,92.09
2024-04-06T02:25:44.263Z,92.09
2024-04-06T02:26:43.821Z,92.09
2024-04-06T02:27:43.832Z,92.09
2024-04-06T02:28:43.788Z,92.09
2024-04-06T02:29:43.802Z,92.09
2024-04-06T02:30:44.220Z,92.09
2024-04-06T02:31:43.750Z,91.88
2024-04-06T02:32:43.747Z,91.88
2024-04-06T02:33:43.758Z,91.88
2024-04-06T02:34:43.731Z,91.99
2024-04-06T02:35:43.754Z,91.88
2024-04-06T02:36:44.099Z,91.88
2024-04-06T02:37:43.687Z,91.78
2024-04-06T02:38:43.693Z,91.78
2024-04-06T02:39:43.723Z,92.09
2024-04-06T02:40:43.695Z,91.99
2024-04-06T02:41:44.036Z,91.88
2024-04-06T02:42:43.621Z,91.99
2024-04-06T02:43:43.603Z,91.68
2024-04-06T02:44:43.594Z,91.58
2024-04-06T02:45:43.635Z,91.48
2024-04-06T02:46:43.664Z,91.38
2024-04-06T02:47:43.955Z,91.48
2024-04-06T02:48:43.543Z,91.48
2024-04-06T02:49:43.542Z,91.48
2024-04-06T02:50:43.674Z,91.78
2024-04-06T02:51:43.591Z,91.88
2024-04-06T02:52:44.144Z,91.48
2024-04-06T02:53:43.860Z,91.48
2024-04-06T02:54:43.565Z,91.58
2024-04-06T02:55:43.632Z,91.48
2024-04-06T02:56:43.491Z,91.38
2024-04-06T02:57:43.574Z,91.38
2024-04-06T02:58:43.840Z,91.58
2024-04-06T02:59:43.434Z,91.48
2024-04-06T03:00:43.381Z,91.38
2024-04-06T03:01:43.429Z,91.38
2024-04-06T03:02:43.346Z,91.38
2024-04-06T03:03:43.752Z,91.38
2024-04-06T03:04:43.372Z,91.58
2024-04-06T03:05:43.313Z,91.58
2024-04-06T03:06:43.336Z,91.58
2024-04-06T03:07:43.291Z,91.68
2024-04-06T03:08:43.278Z,91.58
2024-04-06T03:09:43.805Z,91.68
2024-04-06T03:10:43.272Z,91.88
2024-04-06T03:11:43.265Z,91.99
2024-04-06T03:12:43.228Z,92.09
2024-04-06T03:13:43.217Z,91.88
2024-04-06T03:14:43.259Z,91.99
2024-04-06T03:15:43.768Z,91.78
2024-04-06T03:16:43.215Z,91.58
2024-04-06T03:17:43.167Z,91.58
2024-04-06T03:18:43.152Z,91.48
2024-04-06T03:19:43.144Z,91.48
2024-04-06T03:20:43.137Z,91.48
2024-04-06T03:21:43.816Z,91.58
2024-04-06T03:22:43.122Z,91.58
2024-04-06T03:23:43.094Z,91.68
2024-04-06T03:24:43.086Z,91.68
2024-04-06T03:25:43.626Z,91.68
2024-04-06T03:26:43.714Z,91.58
2024-04-06T03:27:43.147Z,91.48
2024-04-06T03:28:43.028Z,91.48
2024-04-06T03:29:43.017Z,91.52
2024-04-06T03:30:42.987Z,91.78
2024-04-06T03:31:43.035Z,91.78
2024-04-06T03:32:43.599Z,91.58
2024-04-06T03:33:42.939Z,91.58
2024-04-06T03:34:42.950Z,91.68
2024-04-06T03:35:42.942Z,91.48
2024-04-06T03:36:42.913Z,91.48
2024-04-06T03:37:43.407Z,91.48
2024-04-06T03:38:42.874Z,91.48
2024-04-06T03:39:42.882Z,91.68
2024-04-06T03:40:42.872Z,91.88
2024-04-06T03:41:42.894Z,91.62
2024-04-06T03:42:42.863Z,91.52
2024-04-06T03:43:43.894Z,91.52
2024-04-06T03:44:42.872Z,91.52
2024-04-06T03:45:42.806Z,91.72
2024-04-06T03:46:42.810Z,91.72
2024-04-06T03:47:42.758Z,91.52
2024-04-06T03:48:42.801Z,91.62
2024-04-06T03:49:43.195Z,91.83
2024-04-06T03:50:42.730Z,91.62
2024-04-06T03:51:42.717Z,91.62
2024-04-06T03:52:42.720Z,91.62
2024-04-06T03:53:42.703Z,91.72
2024-04-06T03:54:42.689Z,91.62
2024-04-06T03:55:43.083Z,91.72
2024-04-06T03:56:42.815Z,91.72
2024-04-06T03:57:42.647Z,91.62
2024-04-06T03:58:42.603Z,91.72
2024-04-06T03:59:42.618Z,92.03
2024-04-06T04:00:43.028Z,91.93
2024-04-06T04:01:42.615Z,91.93
2024-04-06T04:02:42.615Z,92.03
2024-04-06T04:03:42.632Z,91.83
2024-04-06T04:04:42.553Z,91.83
2024-04-06T04:05:42.938Z,91.83
2024-04-06T04:06:42.606Z,92.03
2024-04-06T04:07:42.545Z,91.93
2024-04-06T04:08:42.502Z,91.93
2024-04-06T04:09:42.470Z,91.93
2024-04-06T04:10:42.481Z,92.03
2024-04-06T04:11:42.981Z,92.03
2024-04-06T04:12:42.483Z,92.13
2024-04-06T04:13:42.414Z,92.23
2024-04-06T04:14:42.412Z,92.44
2024-04-06T04:15:42.405Z,92.44
2024-04-06T04:16:42.813Z,92.33
2024-04-06T04:17:42.438Z,92.23
2024-04-06T04:18:42.380Z,92.23
2024-04-06T04:19:42.379Z,92.44
2024-04-06T04:20:42.345Z,92.33
2024-04-06T04:21:42.299Z,92.38
2024-04-06T04:22:42.722Z,92.38
2024-04-06T04:23:42.363Z,92.48
2024-04-06T04:24:42.310Z,92.48
2024-04-06T04:25:42.283Z,92.48
2024-04-06T04:26:42.265Z,92.79
2024-04-06T04:27:42.692Z,92.79
2024-04-06T04:28:42.356Z,92.79
2024-04-06T04:29:42.339Z,92.48
2024-04-06T04:30:42.210Z,92.38
2024-04-06T04:31:42.210Z,92.58
2024-04-06T04:32:42.293Z,92.58
2024-04-06T04:33:42.638Z,92.38
2024-04-06T04:34:42.243Z,92.48
2024-04-06T04:35:42.188Z,92.27
2024-04-06T04:36:42.150Z,92.27
2024-04-06T04:37:42.136Z,92.27
2024-04-06T04:38:42.530Z,92.38
2024-04-06T04:39:42.118Z,92.38
2024-04-06T04:40:42.201Z,92.68
2024-04-06T04:41:42.056Z,92.58
2024-04-06T04:42:42.098Z,92.48
2024-04-06T04:43:42.064Z,92.48
2024-04-06T04:44:46.368Z,92.48
2024-04-06T04:45:42.040Z,92.38
2024-04-06T04:46:42.090Z,92.38
2024-04-06T04:47:42.083Z,92.38
2024-04-06T04:48:42.002Z,92.48
2024-04-06T04:49:42.403Z,92.48
2024-04-06T04:50:41.985Z,92.68
2024-04-06T04:51:42.182Z,92.68
2024-04-06T04:52:41.961Z,92.68
2024-04-06T04:53:41.931Z,92.58
2024-04-06T04:54:41.987Z,92.79
2024-04-06T04:55:42.444Z,92.68
2024-04-06T04:56:41.876Z,92.58
2024-04-06T04:57:41.885Z,92.68
2024-04-06T04:58:41.860Z,92.48
2024-04-06T04:59:41.861Z,92.48
2024-04-06T05:00:42.242Z,92.38
2024-04-06T05:01:41.825Z,92.48
2024-04-06T05:02:41.854Z,92.27
2024-04-06T05:03:41.833Z,92.07
2024-04-06T05:04:41.768Z,91.97
2024-04-06T05:05:41.763Z,91.87
2024-04-06T05:06:42.185Z,91.97
2024-04-06T05:07:41.718Z,91.77
2024-04-06T05:08:41.832Z,91.87
2024-04-06T05:09:41.864Z,91.87
2024-04-06T05:10:41.726Z,91.97
2024-04-06T05:11:41.688Z,92.07
2024-04-06T05:12:42.074Z,91.87
2024-04-06T05:13:41.673Z,91.87
2024-04-06T05:14:41.730Z,91.97
2024-04-06T05:15:41.631Z,92.07
2024-04-06T05:16:41.609Z,91.97
2024-04-06T05:17:42.047Z,92.07
2024-04-06T05:18:41.600Z,92.18
2024-04-06T05:19:41.582Z,92.27
2024-04-06T05:20:41.544Z,92.38
2024-04-06T05:21:41.560Z,92.27
2024-04-06T05:22:41.953Z,92.27
2024-04-06T05:23:41.516Z,92.27
2024-04-06T05:24:41.512Z,91.97
2024-04-06T05:25:41.496Z,91.87
2024-04-06T05:26:41.524Z,91.87
2024-04-06T05:27:42.712Z,91.87
2024-04-06T05:28:41.453Z,91.87
2024-04-06T05:29:41.439Z,91.77
2024-04-06T05:30:41.772Z,91.77
2024-04-06T05:31:41.488Z,91.66
2024-04-06T05:32:41.432Z,91.56
2024-04-06T05:33:41.828Z,91.46
2024-04-06T05:34:41.433Z,91.36
2024-04-06T05:35:41.388Z,91.46
2024-04-06T05:36:41.342Z,91.42
2024-04-06T05:37:41.358Z,91.22
2024-04-06T05:38:41.717Z,91.31
2024-04-06T05:39:41.370Z,91.11
2024-04-06T05:40:41.332Z,91.11
2024-04-06T05:41:41.282Z,90.91
2024-04-06T05:42:41.337Z,90.70
2024-04-06T05:43:41.758Z,90.70
2024-04-06T05:44:41.260Z,90.60
2024-04-06T05:45:41.218Z,90.30
2024-04-06T05:46:41.214Z,90.40
2024-04-06T05:47:41.258Z,90.40
2024-04-06T05:48:41.178Z,90.30
2024-04-06T05:49:41.648Z,90.30
2024-04-06T05:50:41.175Z,90.20
2024-04-06T05:51:41.133Z,90.20
2024-04-06T05:52:41.158Z,90.09
2024-04-06T05:53:41.118Z,90.20
2024-04-06T05:54:41.623Z,90.20
2024-04-06T05:55:41.239Z,90.09
2024-04-06T05:56:41.097Z,90.05
2024-04-06T05:57:41.115Z,90.16
2024-04-06T05:58:41.090Z,89.95
2024-04-06T05:59:41.089Z,89.85
2024-04-06T06:00:41.544Z,89.75
2024-04-06T06:01:41.681Z,89.75
2024-04-06T06:02:41.089Z,89.75
2024-04-06T06:03:41.004Z,89.54
2024-04-06T06:04:41.009Z,89.54
2024-04-06T06:05:41.521Z,89.30
2024-04-06T06:06:41.127Z,89.30
2024-04-06T06:07:40.915Z,89.09
2024-04-06T06:08:40.937Z,89.00
2024-04-06T06:09:40.940Z,89.09
2024-04-06T06:10:40.916Z,88.89
2024-04-06T06:11:41.389Z,88.79
2024-04-06T06:12:41.238Z,88.79
2024-04-06T06:13:40.896Z,88.79
2024-04-06T06:14:40.862Z,88.48
2024-04-06T06:15:40.849Z,88.59
2024-04-06T06:17:08.970Z,88.59
2024-04-06T06:17:41.812Z,88.69
2024-04-06T06:18:40.842Z,88.69
2024-04-06T06:19:40.814Z,88.79
2024-04-06T06:20:40.795Z,88.79
2024-04-06T06:21:43.206Z,88.59
2024-04-06T06:22:41.158Z,88.48
2024-04-06T06:23:40.764Z,88.59
2024-04-06T06:24:40.707Z,88.44
2024-04-06T06:25:40.734Z,88.24
2024-04-06T06:26:40.696Z,88.24
2024-04-06T06:27:42.756Z,87.84
2024-04-06T06:28:40.712Z,87.73
2024-04-06T06:29:40.663Z,87.84
2024-04-06T06:30:40.658Z,87.93
2024-04-06T06:31:40.657Z,87.84
2024-04-06T06:32:41.064Z,87.63
2024-04-06T06:33:40.634Z,87.43
2024-04-06T06:34:40.657Z,87.49
2024-04-06T06:40:41.330Z,87.73
2024-04-06T06:40:41.660Z,87.69
2024-04-06T06:41:43.138Z,87.49
2024-04-06T06:42:40.900Z,87.49
2024-04-06T06:43:40.455Z,87.38
2024-04-06T06:44:40.506Z,86.98
2024-04-06T06:45:40.490Z,86.77
2024-04-06T06:46:40.485Z,86.88
2024-04-06T06:47:41.859Z,87.08
2024-04-06T06:48:40.407Z,86.98
2024-04-06T06:49:40.429Z,86.98
2024-04-06T06:50:40.519Z,86.88
2024-04-06T06:51:40.479Z,86.94
2024-04-06T06:52:40.843Z,86.83
2024-04-06T06:53:40.459Z,86.63
2024-04-06T06:54:42.610Z,86.53
2024-04-06T06:55:42.793Z,86.53
2024-04-06T06:56:40.345Z,86.43
2024-04-06T06:57:40.385Z,86.13
2024-04-06T06:58:40.745Z,86.08
2024-04-06T07:00:40.379Z,86.08
2024-04-06T07:01:40.286Z,85.98
2024-04-06T07:02:40.273Z,85.98
2024-04-06T07:03:40.265Z,85.88
2024-04-06T07:04:40.646Z,85.98
2024-04-06T07:05:40.217Z,85.98
2024-04-06T07:07:40.175Z,85.88
2024-04-06T07:08:40.153Z,85.78
2024-04-06T07:09:40.572Z,85.88
2024-04-06T07:10:40.246Z,85.78
2024-04-06T07:11:43.987Z,85.68
2024-04-06T07:12:40.111Z,85.88
2024-04-06T07:13:40.080Z,85.68
2024-04-06T07:14:40.455Z,85.68
2024-04-06T07:15:40.106Z,85.68
2024-04-06T07:16:40.134Z,85.64
2024-04-06T07:17:40.048Z,85.44
2024-04-06T07:18:40.018Z,85.03
2024-04-06T07:19:40.077Z,85.03
2024-04-06T07:20:40.431Z,84.83
2024-04-06T07:21:39.970Z,84.63
2024-04-06T07:22:40.007Z,84.58
2024-04-06T07:23:39.993Z,84.38
2024-04-06T07:24:40.074Z,83.98
2024-04-06T07:25:39.999Z,83.87
2024-04-06T07:26:40.335Z,83.73
2024-04-06T07:27:39.904Z,83.43
2024-04-06T07:28:39.903Z,83.23
2024-04-06T07:29:39.991Z,82.89
2024-04-06T07:30:39.946Z,82.68
2024-04-06T07:31:40.292Z,82.28
2024-04-06T07:32:39.858Z,82.14
2024-04-06T07:33:39.873Z,81.52
2024-04-06T07:34:39.860Z,80.98
2024-04-06T07:35:39.831Z,80.47
2024-04-06T07:36:40.263Z,80.38
2024-04-06T07:37:39.790Z,80.47
2024-04-06T07:39:39.768Z,79.63
2024-04-06T07:40:39.776Z,79.43
2024-04-06T07:41:39.751Z,79.22
2024-04-06T07:42:40.197Z,79.33
2024-04-06T07:43:39.746Z,79.33
2024-04-06T07:44:39.737Z,79.33
2024-04-06T07:45:39.684Z,79.22
2024-04-06T07:46:39.703Z,79.22
2024-04-06T07:47:40.054Z,79.08
2024-04-06T07:48:39.638Z,78.68
2024-04-06T07:49:39.624Z,78.17
2024-04-06T07:50:39.631Z,78.04
2024-04-06T07:51:39.645Z,77.84
2024-04-06T07:52:40.017Z,77.84
2024-04-06T07:53:40.279Z,76.79
2024-04-06T07:54:39.562Z,76.99
2024-04-06T07:55:39.588Z,76.45
2024-04-06T07:56:39.562Z,76.45
2024-04-06T07:57:39.559Z,75.84
2024-04-06T07:58:39.952Z,75.60
2024-04-06T07:59:39.479Z,75.51
2024-04-06T08:00:39.502Z,75.31
2024-04-06T08:01:39.463Z,75.16
2024-04-06T08:02:39.482Z,74.76
2024-04-06T08:03:39.845Z,74.56
2024-04-06T08:04:39.459Z,74.46
2024-04-06T08:05:39.452Z,74.83
2024-04-06T08:06:39.417Z,74.12
2024-04-06T08:07:39.466Z,72.91
2024-04-06T08:08:39.761Z,72.41
2024-04-06T08:09:39.370Z,72.51
2024-04-06T08:10:39.378Z,72.81
2024-04-06T08:11:39.326Z,73.01
2024-04-06T08:12:39.554Z,72.91
2024-04-06T08:13:39.721Z,72.47
2024-04-06T08:14:39.295Z,72.27
2024-04-06T08:15:39.320Z,71.97
2024-04-06T08:16:39.450Z,72.07
2024-04-06T08:17:39.270Z,71.33
2024-04-06T08:18:39.252Z,71.23
2024-04-06T08:19:39.615Z,71.23
2024-04-06T08:20:39.240Z,70.70
2024-04-06T08:21:39.218Z,70.29
2024-04-06T08:22:39.278Z,69.96
2024-04-06T08:23:39.186Z,69.35
2024-04-06T08:24:39.163Z,68.65
2024-04-06T08:25:39.548Z,68.55
2024-04-06T08:26:39.132Z,68.95
2024-04-06T08:27:39.168Z,69.05
2024-04-06T08:28:41.595Z,69.05
2024-04-06T08:29:39.123Z,68.85
2024-04-06T08:30:39.570Z,69.35
2024-04-06T08:31:39.084Z,69.69
2024-04-06T08:32:39.131Z,69.59
2024-04-06T08:33:39.754Z,69.29
2024-04-06T08:34:39.009Z,69.38
2024-04-06T08:35:39.044Z,69.59
2024-04-06T08:36:39.448Z,69.69
2024-04-06T08:37:39.013Z,69.45
2024-04-06T08:38:39.016Z,69.35
2024-04-06T08:39:38.969Z,69.35
2024-04-06T08:40:39.006Z,69.35
2024-04-06T08:41:38.943Z,69.15
2024-04-06T08:42:39.350Z,69.02
2024-04-06T08:43:38.954Z,68.91
2024-04-06T08:44:38.955Z,68.82
2024-04-06T08:45:38.987Z,68.71
2024-04-06T08:46:38.889Z,68.51
2024-04-06T08:47:39.284Z,68.62
2024-04-06T08:48:38.879Z,68.28
2024-04-06T08:49:39.005Z,67.65
2024-04-06T08:50:39.505Z,67.44
2024-04-06T08:51:38.842Z,67.04
2024-04-06T08:52:39.236Z,67.44
2024-04-06T08:53:38.934Z,67.24
2024-04-06T08:54:38.796Z,66.61
2024-04-06T08:55:38.816Z,66.51
2024-04-06T08:56:38.795Z,66.20
2024-04-06T08:57:39.294Z,66.31
2024-04-06T08:58:38.747Z,66.31
2024-04-06T08:59:38.722Z,66.20
2024-04-06T09:00:38.769Z,66.00
2024-04-06T09:01:38.752Z,65.91
2024-04-06T09:02:38.846Z,65.77
2024-04-06T09:03:39.166Z,65.67
2024-04-06T09:04:38.766Z,65.97
2024-04-06T09:05:38.617Z,65.97
2024-04-06T09:06:38.650Z,65.67
2024-04-06T09:07:38.708Z,65.67
2024-04-06T09:08:39.127Z,66.11
2024-04-06T09:09:38.598Z,66.41
2024-04-06T09:10:38.553Z,66.58
2024-04-06T09:11:38.575Z,65.84
2024-04-06T09:12:38.587Z,65.84
2024-04-06T09:13:39.086Z,65.41
2024-04-06T09:14:38.534Z,64.71
2024-04-06T09:15:38.481Z,64.37
2024-04-06T09:16:38.615Z,63.67
2024-04-06T09:17:38.548Z,63.60
2024-04-06T09:18:38.470Z,64.24
2024-04-06T09:19:38.949Z,64.11
2024-04-06T09:20:38.516Z,64.11
2024-04-06T09:21:38.413Z,63.70
2024-04-06T09:22:38.439Z,63.10
2024-04-06T09:23:38.404Z,63.50
2024-04-06T09:24:38.873Z,63.40
2024-04-06T09:25:38.377Z,63.00
2024-04-06T09:26:38.406Z,63.10
2024-04-06T09:27:38.401Z,63.10
2024-04-06T09:28:38.367Z,63.31
2024-04-06T09:29:38.824Z,63.37
2024-04-06T09:30:38.448Z,63.04
2024-04-06T09:31:38.342Z,62.74
2024-04-06T09:32:38.335Z,62.11
2024-04-06T09:33:38.294Z,62.01
2024-04-06T09:34:38.748Z,61.91
2024-04-06T09:35:39.004Z,61.61
2024-04-06T09:36:38.246Z,61.71
2024-04-06T09:37:38.277Z,61.84
2024-04-06T09:38:38.270Z,62.04
2024-04-06T09:39:38.681Z,61.64
2024-04-06T09:40:38.253Z,61.54
2024-04-06T09:41:38.318Z,61.84
2024-04-06T09:42:38.252Z,61.71
2024-04-06T09:43:38.157Z,61.41
2024-04-06T09:44:38.629Z,61.74
2024-04-06T09:45:38.181Z,61.61
2024-04-06T09:46:38.134Z,61.71
2024-04-06T09:47:38.254Z,61.31
2024-04-06T09:48:38.131Z,61.11
2024-04-06T09:49:38.104Z,61.08
2024-04-06T09:50:38.498Z,60.61
2024-04-06T09:51:38.183Z,60.71
2024-04-06T09:52:38.086Z,61.31
2024-04-06T09:53:38.159Z,61.64
2024-04-06T09:54:38.066Z,61.04
2024-04-06T09:55:38.513Z,60.81
2024-04-06T09:56:38.020Z,60.94
2024-04-06T09:57:38.015Z,61.24
2024-04-06T09:58:38.146Z,61.24
2024-04-06T09:59:38.065Z,61.01
2024-04-06T10:00:38.002Z,60.21
2024-04-06T10:01:38.344Z,60.53
2024-04-06T10:02:37.905Z,61.04
2024-04-06T10:03:37.946Z,61.34
2024-04-06T10:04:39.956Z,60.91
2024-04-06T10:05:37.869Z,60.38
2024-04-06T10:06:37.847Z,59.85
2024-04-06T10:07:38.315Z,59.12
2024-04-06T10:08:37.868Z,58.59
2024-04-06T10:09:37.845Z,57.69
2024-04-06T10:10:37.858Z,57.26
2024-04-06T10:11:37.778Z,56.34
2024-04-06T10:12:38.443Z,56.04
2024-04-06T10:13:37.769Z,55.41
2024-04-06T10:14:37.788Z,55.34
2024-04-06T10:15:37.797Z,55.54
2024-04-06T10:16:37.738Z,55.74
2024-04-06T10:17:37.726Z,55.44
2024-04-06T10:18:38.141Z,54.41
2024-04-06T10:19:37.721Z,54.22
2024-04-06T10:20:37.760Z,54.41
2024-04-06T10:21:37.676Z,54.52
2024-04-06T10:22:37.677Z,55.14
2024-04-06T10:23:37.641Z,55.21
2024-04-06T10:24:38.761Z,54.71
2024-04-06T10:25:37.641Z,54.71
2024-04-06T10:26:37.683Z,55.49
2024-04-06T10:27:37.671Z,54.96
2024-04-06T10:28:37.578Z,54.39
2024-04-06T10:29:37.989Z,55.21
2024-04-06T10:30:37.606Z,55.09
2024-04-06T10:31:42.665Z,54.59
2024-04-06T10:32:39.036Z,54.59
2024-04-06T10:33:37.609Z,54.69
2024-04-06T10:34:45.960Z,55.02
2024-04-06T10:35:39.481Z,54.39
2024-04-06T10:36:37.538Z,54.69
2024-04-06T10:37:37.514Z,55.11
2024-04-06T10:38:37.453Z,56.14
2024-04-06T10:39:37.412Z,55.88
2024-04-06T10:40:37.594Z,54.86
2024-04-06T10:41:37.825Z,54.46
2024-04-06T10:42:37.383Z,54.27
2024-04-06T10:43:37.579Z,54.34
2024-04-06T10:44:37.382Z,53.61
2024-04-06T10:45:37.668Z,53.29
2024-04-06T10:46:37.852Z,53.29
2024-04-06T10:47:37.402Z,52.34
2024-04-06T10:48:37.346Z,51.65
2024-04-06T10:49:37.504Z,50.85
2024-04-06T10:50:37.309Z,51.25
2024-04-06T10:51:37.281Z,49.53
2024-04-06T10:52:37.687Z,49.33
2024-04-06T10:53:37.291Z,50.18
2024-04-06T10:54:38.957Z,50.90
2024-04-06T10:55:37.441Z,51.37
2024-04-06T10:56:37.260Z,50.68
2024-04-06T10:57:37.659Z,50.65
2024-04-06T10:58:37.191Z,51.15
2024-04-06T10:59:37.233Z,50.43
2024-04-06T11:00:38.144Z,49.80
2024-04-06T11:01:37.218Z,48.59
2024-04-06T11:02:37.666Z,47.77
2024-04-06T11:03:37.187Z,47.38
2024-04-06T11:04:37.133Z,47.45
2024-04-06T11:05:37.156Z,46.78
2024-04-06T11:06:38.795Z,46.48
2024-04-06T11:07:37.601Z,46.70
2024-04-06T11:08:37.090Z,47.00
2024-04-06T11:09:37.063Z,47.30
2024-04-06T11:10:37.103Z,47.70
2024-04-06T11:11:37.033Z,48.22
2024-04-06T11:12:39.018Z,49.13
2024-04-06T11:13:37.485Z,50.48
2024-04-06T11:14:37.080Z,50.68
2024-04-06T11:15:36.991Z,50.45
2024-04-06T11:16:37.022Z,50.35
2024-04-06T11:17:37.050Z,49.83
2024-04-06T11:18:37.183Z,49.43
2024-04-06T11:19:37.350Z,49.21
2024-04-06T11:20:37.109Z,48.59
2024-04-06T11:21:36.913Z,48.37
2024-04-06T11:22:36.926Z,48.07
2024-04-06T11:23:37.032Z,47.16
2024-04-06T11:24:38.816Z,46.73
2024-04-06T11:25:37.333Z,46.51
2024-04-06T11:26:36.889Z,44.71
2024-04-06T11:27:36.877Z,44.83
2024-04-06T11:28:36.913Z,45.96
2024-04-06T11:29:37.043Z,46.16
2024-04-06T11:30:37.195Z,45.34
2024-04-06T11:31:36.808Z,44.06
2024-04-06T11:32:36.897Z,43.96
2024-04-06T11:33:36.812Z,43.93
2024-04-06T11:34:36.805Z,43.74
2024-04-06T11:35:37.198Z,43.82
2024-04-06T11:36:36.706Z,44.13
2024-04-06T11:37:36.759Z,45.27
2024-04-06T11:38:36.704Z,45.05
2024-04-06T11:39:36.870Z,45.42
2024-04-06T11:40:37.099Z,44.21
2024-04-06T11:41:36.674Z,44.29
2024-04-06T11:42:36.827Z,43.87
2024-04-06T11:43:36.632Z,43.87
2024-04-06T11:44:36.665Z,44.49
2024-04-06T11:45:36.623Z,44.78
2024-04-06T11:46:37.133Z,44.78
2024-04-06T11:47:36.674Z,44.98
2024-04-06T11:48:36.573Z,45.26
2024-04-06T11:49:36.555Z,44.15
2024-04-06T11:50:36.592Z,43.73
2024-04-06T11:51:37.022Z,44.35
2024-04-06T11:52:36.687Z,44.02
2024-04-06T11:53:36.542Z,44.23
2024-04-06T11:54:36.531Z,43.93
2024-04-06T11:55:36.508Z,44.02
2024-04-06T11:56:36.519Z,44.02
2024-04-06T11:57:36.911Z,43.43
2024-04-06T11:58:36.492Z,43.73
2024-04-06T11:59:36.450Z,43.41
2024-04-06T12:00:36.485Z,42.92
2024-04-06T12:01:36.515Z,43.63
2024-04-06T12:02:36.464Z,44.17
2024-04-06T12:03:36.887Z,44.07
2024-04-06T12:04:36.392Z,45.20
2024-04-06T12:05:36.445Z,45.62
2024-04-06T12:06:36.370Z,45.42
2024-04-06T12:07:36.420Z,46.76
2024-04-06T12:08:36.818Z,46.24
2024-04-06T12:09:36.315Z,46.66
2024-04-06T12:10:36.524Z,46.86
2024-04-06T12:11:36.311Z,46.86
2024-04-06T12:12:36.377Z,47.08
2024-04-06T12:13:36.369Z,48.11
2024-04-06T12:14:36.778Z,48.34
2024-04-06T12:15:36.267Z,48.81
2024-04-06T12:16:36.271Z,48.29
2024-04-06T12:17:36.246Z,47.67
2024-04-06T12:18:36.202Z,47.08
2024-04-06T12:19:36.670Z,46.64
2024-04-06T12:20:36.237Z,46.34
2024-04-06T12:21:36.167Z,46.42
2024-04-06T12:22:36.252Z,45.70
2024-04-06T12:23:36.292Z,45.45
2024-04-06T12:24:36.566Z,44.15
2024-04-06T12:25:36.256Z,44.64
2024-04-06T12:26:36.111Z,43.83
2024-04-06T12:27:36.169Z,43.41
2024-04-06T12:28:36.107Z,43.10
2024-04-06T12:29:36.533Z,42.58
2024-04-06T12:30:36.194Z,42.66
2024-04-06T12:31:36.195Z,42.88
2024-04-06T12:32:36.051Z,42.70
2024-04-06T12:33:36.041Z,42.90
2024-04-06T12:34:36.054Z,42.88
2024-04-06T12:35:36.489Z,42.19
2024-04-06T12:36:36.022Z,42.16
2024-04-06T12:37:35.977Z,41.55
2024-04-06T12:38:35.978Z,41.65
2024-04-06T12:39:35.971Z,40.84
2024-04-06T12:40:36.394Z,40.74
2024-04-06T12:41:35.925Z,40.53
2024-04-06T12:42:36.116Z,40.31
2024-04-06T12:43:35.893Z,39.92
2024-04-06T12:44:35.925Z,39.31
2024-04-06T12:45:35.906Z,39.28
2024-04-06T12:46:36.289Z,39.28
2024-04-06T12:47:36.045Z,39.39
2024-04-06T12:48:35.875Z,38.89
2024-04-06T12:49:35.864Z,39.18
2024-04-06T12:50:35.830Z,39.09
2024-04-06T12:51:35.881Z,39.28
2024-04-06T12:52:36.387Z,38.70
2024-04-06T12:53:35.923Z,39.62
2024-04-06T12:54:35.824Z,39.42
2024-04-06T12:55:35.837Z,39.31
2024-04-06T12:56:35.782Z,39.79
2024-04-06T12:57:36.225Z,38.60
2024-04-06T12:58:36.033Z,38.51
2024-04-06T12:59:35.756Z,39.03